Time;durP1;ratioP1;P1;durP2;ratioP2;P2;SDS_P1;SDS_P2;PMS_P1;PMS_P2;Temp;Humidity;BMP_temperature;BMP_pressure;BME280_temperature;BME280_humidity;BME280_pressure;Samples;Min_cycle;Max_cycle;Signal;HPM_P1;HPM_P2
2023/12/16 00:00:40;;;;;;;73.38;19.35;;;;;;;;;;4900497;29;20469;-92
2023/12/16 00:03:07;;;;;;;58.38;18.52;;;;;;;;;;4899597;29;20040;-92
2023/12/16 00:05:33;;;;;;;60.55;17.60;;;;;;;;;;4903018;29;20044;-91
2023/12/16 00:08:00;;;;;;;77.22;19.00;;;;;;;;;;4904864;29;20119;-92
2023/12/16 00:10:27;;;;;;;89.50;20.58;;;;;;;;;;4899859;29;20084;-92
2023/12/16 00:12:54;;;;;;;80.10;19.13;;;;;;;;;;4908347;29;20125;-92
2023/12/16 00:15:21;;;;;;;103.78;20.58;;;;;;;;;;4896194;29;20044;-92
2023/12/16 00:17:48;;;;;;;48.78;17.63;;;;;;;;;;4905918;29;20048;-92
2023/12/16 00:20:14;;;;;;;71.75;19.45;;;;;;;;;;4899582;29;20040;-93
2023/12/16 00:22:41;;;;;;;96.78;19.55;;;;;;;;;;4899861;29;20037;-94
2023/12/16 00:25:08;;;;;;;66.03;17.30;;;;;;;;;;4891261;29;20627;-92
2023/12/16 00:27:36;;;;;;;66.43;16.75;;;;;;;;;;4894139;29;20096;-92
2023/12/16 00:30:03;;;;;;;89.68;19.02;;;;;;;;;;4902847;29;20072;-92
2023/12/16 00:32:30;;;;;;;87.13;19.83;;;;;;;;;;4901109;29;20135;-92
2023/12/16 00:34:57;;;;;;;78.97;19.17;;;;;;;;;;4906708;29;20040;-92
2023/12/16 00:37:23;;;;;;;112.45;18.85;;;;;;;;;;4899141;29;20472;-91
2023/12/16 00:39:50;;;;;;;66.95;17.58;;;;;;;;;;4908426;29;20055;-92
2023/12/16 00:42:17;;;;;;;91.07;19.33;;;;;;;;;;4900223;29;20044;-91
2023/12/16 00:44:43;;;;;;;107.93;21.20;;;;;;;;;;4907309;29;20044;-92
2023/12/16 00:47:10;;;;;;;49.60;17.25;;;;;;;;;;4902050;29;20067;-92
2023/12/16 00:49:36;;;;;;;58.35;16.05;;;;;;;;;;4904806;29;20096;-92
2023/12/16 00:52:03;;;;;;;124.82;21.67;;;;;;;;;;4903544;29;20700;-92
2023/12/16 00:54:30;;;;;;;74.65;18.90;;;;;;;;;;4898441;29;20048;-92
2023/12/16 00:56:56;;;;;;;79.55;17.70;;;;;;;;;;4905765;29;20104;-93
2023/12/16 00:59:26;;;;;;;118.28;20.10;;;;;;;;;;4897506;29;20080;-91
2023/12/16 01:01:52;;;;;;;105.28;19.80;;;;;;;;;;4907781;29;20033;-92
2023/12/16 01:04:19;;;;;;;74.70;17.80;;;;;;;;;;4898653;29;20040;-92
2023/12/16 01:06:46;;;;;;;112.90;20.52;;;;;;;;;;4905716;29;20104;-91
2023/12/16 01:09:13;;;;;;;68.82;18.77;;;;;;;;;;4892527;29;20078;-92
2023/12/16 01:11:40;;;;;;;51.63;16.38;;;;;;;;;;4922019;29;20036;-91
2023/12/16 01:14:07;;;;;;;95.30;19.17;;;;;;;;;;4904655;29;20034;-92
2023/12/16 01:16:34;;;;;;;64.75;17.33;;;;;;;;;;4902508;29;20056;-92
2023/12/16 01:19:00;;;;;;;59.45;18.33;;;;;;;;;;4909991;29;20113;-93
2023/12/16 01:21:27;;;;;;;84.00;19.45;;;;;;;;;;4916731;29;20100;-92
2023/12/16 01:23:54;;;;;;;89.65;21.48;;;;;;;;;;4905536;29;20532;-91
2023/12/16 01:26:20;;;;;;;81.93;19.90;;;;;;;;;;4896487;29;20051;-92
2023/12/16 01:28:47;;;;;;;98.35;20.70;;;;;;;;;;4908617;29;20096;-91
2023/12/16 01:31:13;;;;;;;58.97;17.48;;;;;;;;;;4901593;29;20041;-92
2023/12/16 01:33:40;;;;;;;69.95;18.05;;;;;;;;;;4906299;29;20512;-92
2023/12/16 01:36:06;;;;;;;86.80;19.60;;;;;;;;;;4905138;29;20070;-91
2023/12/16 01:38:33;;;;;;;65.43;17.08;;;;;;;;;;4907527;29;20044;-92
2023/12/16 01:40:59;;;;;;;69.53;18.27;;;;;;;;;;4905475;29;20100;-91
2023/12/16 01:43:26;;;;;;;129.40;22.02;;;;;;;;;;4903411;29;20111;-92
2023/12/16 01:45:59;;;;;;;77.63;18.70;;;;;;;;;;4909145;29;20064;-91
2023/12/16 01:48:26;;;;;;;;;;;;;;;;;;4900792;29;20047;-92
2023/12/16 01:50:53;;;;;;;133.15;21.77;;;;;;;;;;4906245;29;19967;-92
2023/12/16 01:53:19;;;;;;;80.50;19.65;;;;;;;;;;4897538;29;20136;-92
2023/12/16 01:55:46;;;;;;;77.88;20.10;;;;;;;;;;4905201;29;20072;-92
2023/12/16 01:58:12;;;;;;;117.22;21.85;;;;;;;;;;4898093;29;20123;-92
2023/12/16 02:00:42;;;;;;;302.58;31.23;;;;;;;;;;5000126;23;20087;-88
2023/12/16 02:03:10;;;;;;;64.93;20.23;;;;;;;;;;4899168;29;20522;-89
2023/12/16 02:05:37;;;;;;;141.52;24.45;;;;;;;;;;4902885;29;20032;-89
2023/12/16 02:08:03;;;;;;;99.32;22.48;;;;;;;;;;4904877;29;20076;-89
2023/12/16 02:10:30;;;;;;;81.53;22.75;;;;;;;;;;4901018;29;20044;-89
2023/12/16 02:12:56;;;;;;;150.48;25.30;;;;;;;;;;4906764;29;20083;-89
2023/12/16 02:15:23;;;;;;;130.95;24.83;;;;;;;;;;4899066;29;20055;-89
2023/12/16 02:17:50;;;;;;;96.18;22.15;;;;;;;;;;4908646;29;20040;-89
2023/12/16 02:20:16;;;;;;;116.40;23.35;;;;;;;;;;4900228;29;20055;-89
2023/12/16 02:22:45;;;;;;;101.97;23.25;;;;;;;;;;4902831;29;20052;-89
2023/12/16 02:25:13;;;;;;;91.85;23.33;;;;;;;;;;4899019;29;20749;-89
2023/12/16 02:27:40;;;;;;;108.78;22.98;;;;;;;;;;4904835;29;20059;-89
2023/12/16 02:30:08;;;;;;;95.07;21.80;;;;;;;;;;4905410;29;20040;-89
2023/12/16 02:32:34;;;;;;;95.63;23.08;;;;;;;;;;4902516;29;20099;-88
2023/12/16 02:35:01;;;;;;;117.75;24.00;;;;;;;;;;4906439;29;20052;-89
2023/12/16 02:37:28;;;;;;;109.32;23.42;;;;;;;;;;4898909;29;20057;-89
2023/12/16 02:39:55;;;;;;;87.57;21.35;;;;;;;;;;4908721;29;20108;-89
2023/12/16 02:42:22;;;;;;;131.98;25.70;;;;;;;;;;4898821;29;20064;-89
2023/12/16 02:44:48;;;;;;;108.80;22.40;;;;;;;;;;4907428;29;20459;-89
2023/12/16 02:47:15;;;;;;;100.75;22.42;;;;;;;;;;4901393;29;20043;-89
2023/12/16 02:49:41;;;;;;;96.55;20.42;;;;;;;;;;4904915;29;20084;-89
2023/12/16 02:52:08;;;;;;;110.38;23.38;;;;;;;;;;4900091;29;20036;-89
2023/12/16 02:54:35;;;;;;;67.43;19.55;;;;;;;;;;4902205;29;20044;-89
2023/12/16 02:57:01;;;;;;;132.65;23.77;;;;;;;;;;4905356;29;20056;-89
2023/12/16 02:59:28;;;;;;;97.25;22.08;;;;;;;;;;4902123;29;20041;-89
2023/12/16 03:01:55;;;;;;;122.38;21.38;;;;;;;;;;4903572;29;20551;-89
2023/12/16 03:04:21;;;;;;;110.78;23.38;;;;;;;;;;4897861;29;20041;-89
2023/12/16 03:06:50;;;;;;;103.97;22.15;;;;;;;;;;4878962;29;20138;-89
2023/12/16 03:09:16;;;;;;;107.47;21.02;;;;;;;;;;4899158;29;20076;-89
2023/12/16 03:11:43;;;;;;;68.05;20.65;;;;;;;;;;4900868;29;21472;-90
2023/12/16 03:14:10;;;;;;;75.65;20.50;;;;;;;;;;4902861;29;20043;-89
2023/12/16 03:16:36;;;;;;;99.82;22.05;;;;;;;;;;4902486;29;20051;-89
2023/12/16 03:19:03;;;;;;;104.57;22.75;;;;;;;;;;4902778;29;20040;-89
2023/12/16 03:21:30;;;;;;;111.65;22.58;;;;;;;;;;4901247;29;20047;-90
2023/12/16 03:23:56;;;;;;;92.13;21.80;;;;;;;;;;4905964;29;20044;-89
2023/12/16 03:26:23;;;;;;;82.93;21.45;;;;;;;;;;4895813;29;20051;-89
2023/12/16 03:28:49;;;;;;;119.60;22.00;;;;;;;;;;4905086;29;20067;-90
2023/12/16 03:31:16;;;;;;;64.65;20.67;;;;;;;;;;4893769;29;20049;-90
2023/12/16 03:33:43;;;;;;;93.53;20.88;;;;;;;;;;4899591;29;20495;-89
2023/12/16 03:36:09;;;;;;;88.13;18.90;;;;;;;;;;4900735;29;20479;-89
2023/12/16 03:38:36;;;;;;;112.63;21.77;;;;;;;;;;4900006;29;20045;-89
2023/12/16 03:41:04;;;;;;;98.38;21.35;;;;;;;;;;4899192;29;20464;-89
2023/12/16 03:43:30;;;;;;;116.13;20.80;;;;;;;;;;4900071;29;20040;-89
2023/12/16 03:45:57;;;;;;;101.35;20.02;;;;;;;;;;4876163;29;20125;-89
2023/12/16 03:48:24;;;;;;;100.40;21.23;;;;;;;;;;4900011;29;20040;-89
2023/12/16 03:50:50;;;;;;;104.88;21.35;;;;;;;;;;4906391;29;20056;-89
2023/12/16 03:53:17;;;;;;;70.97;17.90;;;;;;;;;;4894934;29;20036;-90
2023/12/16 03:55:44;;;;;;;78.95;20.13;;;;;;;;;;4907915;29;20487;-89
2023/12/16 03:58:10;;;;;;;132.77;23.00;;;;;;;;;;4898959;29;20044;-89
2023/12/16 04:00:37;;;;;;;96.50;22.80;;;;;;;;;;4895276;29;20048;-89
2023/12/16 04:03:03;;;;;;;106.82;20.10;;;;;;;;;;4898906;29;20061;-89
2023/12/16 04:05:31;;;;;;;108.32;18.63;;;;;;;;;;4900790;29;20050;-89
2023/12/16 04:07:57;;;;;;;84.55;18.90;;;;;;;;;;4903943;29;20658;-89
2023/12/16 04:10:24;;;;;;;80.15;17.98;;;;;;;;;;4899794;29;20075;-89
2023/12/16 04:12:50;;;;;;;123.70;22.55;;;;;;;;;;4901959;29;20140;-89
2023/12/16 04:15:17;;;;;;;74.95;19.33;;;;;;;;;;4896972;29;20044;-89
2023/12/16 04:17:43;;;;;;;60.55;16.73;;;;;;;;;;4901075;29;20123;-90
2023/12/16 04:20:10;;;;;;;130.63;20.73;;;;;;;;;;4894488;29;20136;-89
2023/12/16 04:22:37;;;;;;;106.78;22.08;;;;;;;;;;4905324;29;20076;-89
2023/12/16 04:25:09;;;;;;;90.80;20.20;;;;;;;;;;4900783;29;20049;-89
2023/12/16 04:27:36;;;;;;;119.20;18.60;;;;;;;;;;4902916;29;20093;-89
2023/12/16 04:30:04;;;;;;;104.05;21.25;;;;;;;;;;4885277;29;20045;-89
2023/12/16 04:32:30;;;;;;;104.95;20.25;;;;;;;;;;4901247;29;20055;-89
2023/12/16 04:34:57;;;;;;;140.82;21.70;;;;;;;;;;4900550;29;20560;-89
2023/12/16 04:37:23;;;;;;;94.07;19.17;;;;;;;;;;4896992;29;20123;-89
2023/12/16 04:39:50;;;;;;;92.30;18.23;;;;;;;;;;4905080;29;20043;-89
2023/12/16 04:42:17;;;;;;;85.40;18.17;;;;;;;;;;4897800;29;20041;-89
2023/12/16 04:44:43;;;;;;;72.40;17.58;;;;;;;;;;4901199;29;20044;-89
2023/12/16 04:47:10;;;;;;;71.97;17.25;;;;;;;;;;4899454;29;20044;-89
2023/12/16 04:49:36;;;;;;;118.88;20.83;;;;;;;;;;4902376;29;20060;-90
2023/12/16 04:52:03;;;;;;;105.82;20.02;;;;;;;;;;4880588;29;20049;-89
2023/12/16 04:54:30;;;;;;;74.38;18.50;;;;;;;;;;4899951;29;20480;-89
2023/12/16 04:56:56;;;;;;;103.78;19.08;;;;;;;;;;4902068;29;20052;-89
2023/12/16 04:59:23;;;;;;;106.45;19.92;;;;;;;;;;4895480;29;20044;-89
2023/12/16 05:01:49;;;;;;;124.10;21.13;;;;;;;;;;4903517;29;20087;-90
2023/12/16 05:04:16;;;;;;;77.47;16.70;;;;;;;;;;4896772;29;20056;-90
2023/12/16 05:06:43;;;;;;;75.90;19.02;;;;;;;;;;4904014;29;20040;-89
2023/12/16 05:09:12;;;;;;;55.53;15.77;;;;;;;;;;4900696;29;20547;-89
2023/12/16 05:11:39;;;;;;;106.47;18.67;;;;;;;;;;4905312;29;20744;-89
2023/12/16 05:14:05;;;;;;;100.70;18.55;;;;;;;;;;4900050;29;20401;-89
2023/12/16 05:16:32;;;;;;;65.10;15.85;;;;;;;;;;4905067;29;20053;-89
2023/12/16 05:19:03;;;;;;;89.68;17.58;;;;;;;;;;4905246;29;20064;-89
2023/12/16 05:21:30;;;;;;;92.60;16.95;;;;;;;;;;4905663;29;20048;-89
2023/12/16 05:23:56;;;;;;;78.57;16.80;;;;;;;;;;4907961;29;20056;-89
2023/12/16 05:26:24;;;;;;;84.82;16.65;;;;;;;;;;4902793;29;20552;-89
2023/12/16 05:28:51;;;;;;;82.97;16.27;;;;;;;;;;4908932;29;20091;-89
2023/12/16 05:31:17;;;;;;;74.68;15.30;;;;;;;;;;4901144;29;20492;-89
2023/12/16 05:33:44;;;;;;;77.07;15.77;;;;;;;;;;4903843;29;20403;-89
2023/12/16 05:36:11;;;;;;;65.28;16.08;;;;;;;;;;4901851;29;20059;-89
2023/12/16 05:38:38;;;;;;;90.30;17.13;;;;;;;;;;4908594;29;20452;-89
2023/12/16 05:41:05;;;;;;;77.88;16.20;;;;;;;;;;4903642;29;20063;-90
2023/12/16 05:43:32;;;;;;;78.40;15.48;;;;;;;;;;4904997;29;20036;-89
2023/12/16 05:45:59;;;;;;;84.88;17.63;;;;;;;;;;4904374;29;20087;-89
2023/12/16 05:48:26;;;;;;;87.90;16.33;;;;;;;;;;4901094;29;20511;-89
2023/12/16 05:50:53;;;;;;;52.90;14.80;;;;;;;;;;4907406;29;20124;-89
2023/12/16 05:53:19;;;;;;;75.78;14.60;;;;;;;;;;4899427;29;20063;-90
2023/12/16 05:55:47;;;;;;;53.70;14.40;;;;;;;;;;4905113;29;20043;-89
2023/12/16 05:58:14;;;;;;;56.90;13.05;;;;;;;;;;4901158;29;20044;-89
2023/12/16 06:00:43;;;;;;;62.40;15.35;;;;;;;;;;4910777;29;20095;-89
2023/12/16 06:03:10;;;;;;;98.47;17.00;;;;;;;;;;4902449;29;20208;-89
2023/12/16 06:05:37;;;;;;;58.45;14.82;;;;;;;;;;4908397;29;20497;-89
2023/12/16 06:08:04;;;;;;;86.13;16.88;;;;;;;;;;4903798;29;20052;-88
2023/12/16 06:10:30;;;;;;;83.22;18.10;;;;;;;;;;4899469;29;20123;-89
2023/12/16 06:12:57;;;;;;;82.57;16.55;;;;;;;;;;4905639;29;20060;-89
2023/12/16 06:15:25;;;;;;;80.70;15.30;;;;;;;;;;4889862;29;20040;-90
2023/12/16 06:17:51;;;;;;;74.13;15.68;;;;;;;;;;4895271;29;20055;-89
2023/12/16 06:20:18;;;;;;;56.70;15.25;;;;;;;;;;4880974;29;20052;-90
2023/12/16 06:22:45;;;;;;;94.85;17.05;;;;;;;;;;4898936;29;20100;-88
2023/12/16 06:25:12;;;;;;;64.03;14.85;;;;;;;;;;4901126;29;20456;-89
2023/12/16 06:27:40;;;;;;;78.13;14.88;;;;;;;;;;4905435;29;20116;-89
2023/12/16 06:30:08;;;;;;;95.57;16.85;;;;;;;;;;4901615;29;20052;-88
2023/12/16 06:32:35;;;;;;;89.25;16.15;;;;;;;;;;4903661;29;20143;-89
2023/12/16 06:35:02;;;;;;;97.93;15.07;;;;;;;;;;4904901;29;20758;-89
2023/12/16 06:37:29;;;;;;;75.70;15.63;;;;;;;;;;4901518;29;20135;-89
2023/12/16 06:39:55;;;;;;;84.15;17.05;;;;;;;;;;4906613;29;20040;-90
2023/12/16 06:42:22;;;;;;;73.97;14.68;;;;;;;;;;4898670;29;20469;-90
2023/12/16 06:44:48;;;;;;;114.25;17.48;;;;;;;;;;4908127;29;20555;-91
2023/12/16 06:47:15;;;;;;;69.50;15.05;;;;;;;;;;4881078;29;20488;-91
2023/12/16 06:49:42;;;;;;;86.55;16.13;;;;;;;;;;4910315;29;20040;-91
2023/12/16 06:52:09;;;;;;;60.88;15.30;;;;;;;;;;4900267;29;20036;-89
2023/12/16 06:54:35;;;;;;;86.43;16.05;;;;;;;;;;4906999;29;20045;-89
2023/12/16 06:57:02;;;;;;;105.82;18.02;;;;;;;;;;4903160;29;20048;-90
2023/12/16 06:59:32;;;;;;;118.05;20.15;;;;;;;;;;4903496;29;20135;-90
2023/12/16 07:01:59;;;;;;;77.07;17.10;;;;;;;;;;4880504;29;20068;-87
2023/12/16 07:04:26;;;;;;;117.80;20.17;;;;;;;;;;4900600;29;20052;-91
2023/12/16 07:06:52;;;;;;;129.95;20.48;;;;;;;;;;4908270;29;20119;-92
2023/12/16 07:09:19;;;;;;;67.45;15.80;;;;;;;;;;4898586;29;20378;-91
2023/12/16 07:11:46;;;;;;;84.90;17.65;;;;;;;;;;4864886;29;20040;-91
2023/12/16 07:14:12;;;;;;;86.68;17.63;;;;;;;;;;4883436;29;20543;-91
2023/12/16 07:16:39;;;;;;;121.60;19.35;;;;;;;;;;4905183;29;20051;-91
2023/12/16 07:19:05;;;;;;;88.32;16.15;;;;;;;;;;4898248;29;20048;-91
2023/12/16 07:21:32;;;;;;;111.30;17.85;;;;;;;;;;4900559;29;20415;-91
2023/12/16 07:23:59;;;;;;;83.90;17.20;;;;;;;;;;4902224;29;20048;-91
2023/12/16 07:26:25;;;;;;;134.90;20.33;;;;;;;;;;4898368;29;20044;-91
2023/12/16 07:28:52;;;;;;;91.80;17.13;;;;;;;;;;4903610;29;20488;-90
2023/12/16 07:31:18;;;;;;;82.78;17.42;;;;;;;;;;4884164;29;20058;-91
2023/12/16 07:33:45;;;;;;;88.38;16.88;;;;;;;;;;4906238;29;20479;-91
2023/12/16 07:36:12;;;;;;;78.57;16.15;;;;;;;;;;4898996;29;20056;-90
2023/12/16 07:38:38;;;;;;;70.85;14.40;;;;;;;;;;4908312;29;20066;-91
2023/12/16 07:41:05;;;;;;;89.28;16.73;;;;;;;;;;4898353;29;20045;-91
2023/12/16 07:43:32;;;;;;;81.35;15.60;;;;;;;;;;4904917;29;20048;-91
2023/12/16 07:45:58;;;;;;;91.97;16.20;;;;;;;;;;4902913;29;20044;-90
2023/12/16 07:48:26;;;;;;;100.95;16.25;;;;;;;;;;4898614;29;20099;-90
2023/12/16 07:50:53;;;;;;;78.50;15.63;;;;;;;;;;4904325;29;20058;-91
2023/12/16 07:53:21;;;;;;;88.88;15.90;;;;;;;;;;4897952;29;20124;-90
2023/12/16 07:55:48;;;;;;;90.28;15.63;;;;;;;;;;4878522;29;20067;-90
2023/12/16 07:58:15;;;;;;;81.07;14.93;;;;;;;;;;4897754;29;20441;-90
2023/12/16 08:00:42;;;;;;;69.85;16.02;;;;;;;;;;4907204;29;20045;-90
2023/12/16 08:03:08;;;;;;;118.68;17.27;;;;;;;;;;4879407;29;20397;-90
2023/12/16 08:05:35;;;;;;;77.18;14.65;;;;;;;;;;4888910;29;20044;-91
2023/12/16 08:08:02;;;;;;;95.88;15.48;;;;;;;;;;4882552;29;20073;-91
2023/12/16 08:10:29;;;;;;;104.72;16.70;;;;;;;;;;4882967;29;20509;-91
2023/12/16 08:12:56;;;;;;;51.00;14.25;;;;;;;;;;4883913;29;20041;-91
2023/12/16 08:15:23;;;;;;;103.38;17.98;;;;;;;;;;4882964;29;20079;-91
2023/12/16 08:17:49;;;;;;;82.75;16.40;;;;;;;;;;4856729;29;20684;-91
2023/12/16 08:20:16;;;;;;;89.13;17.10;;;;;;;;;;4883282;29;20093;-91
2023/12/16 08:22:43;;;;;;;119.38;17.48;;;;;;;;;;4887523;29;20048;-91
2023/12/16 08:25:09;;;;;;;107.25;16.88;;;;;;;;;;4859409;29;20096;-91
2023/12/16 08:27:36;;;;;;;71.85;14.68;;;;;;;;;;4888238;29;20124;-91
2023/12/16 08:30:03;;;;;;;108.93;16.90;;;;;;;;;;4880611;29;20503;-91
2023/12/16 08:32:30;;;;;;;82.95;15.10;;;;;;;;;;4884247;29;20044;-91
2023/12/16 08:34:57;;;;;;;81.28;15.15;;;;;;;;;;4882385;29;20068;-91
2023/12/16 08:37:23;;;;;;;80.55;16.15;;;;;;;;;;4864972;29;20061;-91
2023/12/16 08:39:50;;;;;;;64.93;15.13;;;;;;;;;;4883859;29;20044;-92
2023/12/16 08:42:17;;;;;;;63.53;14.57;;;;;;;;;;4872613;29;20038;-91
2023/12/16 08:44:43;;;;;;;87.00;16.25;;;;;;;;;;4878145;29;20120;-92
2023/12/16 08:47:10;;;;;;;106.53;17.08;;;;;;;;;;4883095;29;20048;-91
2023/12/16 08:49:37;;;;;;;87.78;15.02;;;;;;;;;;4892339;29;20080;-92
2023/12/16 08:52:04;;;;;;;104.40;16.63;;;;;;;;;;4883303;29;20696;-92
2023/12/16 08:54:31;;;;;;;84.63;15.18;;;;;;;;;;4882986;29;20044;-91
2023/12/16 08:56:57;;;;;;;101.43;15.10;;;;;;;;;;4885302;29;20052;-92
2023/12/16 08:59:24;;;;;;;105.03;15.57;;;;;;;;;;4888312;29;20096;-91
2023/12/16 09:01:50;;;;;;;81.45;13.55;;;;;;;;;;4894279;29;20460;-92
2023/12/16 09:04:17;;;;;;;70.93;13.20;;;;;;;;;;4903568;29;20131;-91
2023/12/16 09:06:44;;;;;;;105.00;15.05;;;;;;;;;;4889626;29;20045;-91
2023/12/16 09:09:11;;;;;;;93.30;13.48;;;;;;;;;;4900271;29;20526;-91
2023/12/16 09:11:40;;;;;;;89.10;12.35;;;;;;;;;;4888607;29;20059;-92
2023/12/16 09:14:06;;;;;;;85.15;13.23;;;;;;;;;;4897763;29;20131;-91
2023/12/16 09:16:34;;;;;;;86.70;13.00;;;;;;;;;;4906131;29;20032;-92
2023/12/16 09:19:00;;;;;;;115.50;14.32;;;;;;;;;;4901295;29;20053;-92
2023/12/16 09:21:27;;;;;;;106.88;13.52;;;;;;;;;;4903509;29;20492;-92
2023/12/16 09:23:54;;;;;;;44.97;9.52;;;;;;;;;;4903852;29;20492;-91
2023/12/16 09:26:23;;;;;;;74.93;12.27;;;;;;;;;;4884349;29;20084;-92
2023/12/16 09:28:50;;;;;;;110.97;13.73;;;;;;;;;;4903865;29;20067;-91
2023/12/16 09:31:17;;;;;;;97.82;11.82;;;;;;;;;;4903763;29;20055;-91
2023/12/16 09:33:44;;;;;;;88.75;13.63;;;;;;;;;;4905220;29;20040;-91
2023/12/16 09:36:12;;;;;;;90.30;15.88;;;;;;;;;;4895161;29;20048;-91
2023/12/16 09:38:41;;;;;;;75.75;12.50;;;;;;;;;;4895697;29;20100;-91
2023/12/16 09:41:19;;;;;;;97.70;12.07;;;;;;;;;;4896485;29;20104;-91
2023/12/16 09:43:49;;;;;;;75.03;10.68;;;;;;;;;;4875110;29;20568;-91
2023/12/16 09:46:16;;;;;;;112.20;12.75;;;;;;;;;;4882640;29;20556;-92
2023/12/16 09:48:43;;;;;;;73.88;12.02;;;;;;;;;;4884738;29;20047;-91
2023/12/16 09:51:10;;;;;;;78.70;11.30;;;;;;;;;;4903133;29;20050;-91
2023/12/16 09:53:36;;;;;;;117.57;13.10;;;;;;;;;;4901760;29;20040;-91
2023/12/16 09:56:04;;;;;;;91.95;12.27;;;;;;;;;;4888130;29;20047;-91
2023/12/16 09:58:32;;;;;;;64.95;10.10;;;;;;;;;;4900352;29;20044;-91
2023/12/16 10:01:01;;;;;;;175.20;16.73;;;;;;;;;;4863605;29;1256514;-92
2023/12/16 10:03:28;;;;;;;80.68;10.43;;;;;;;;;;4881770;29;20100;-92
2023/12/16 10:05:55;;;;;;;69.88;11.48;;;;;;;;;;4909791;29;20091;-92
2023/12/16 10:08:21;;;;;;;85.20;11.57;;;;;;;;;;4901302;29;20040;-92
2023/12/16 10:10:55;;;;;;;73.15;11.48;;;;;;;;;;4887296;29;20059;-91
2023/12/16 10:13:53;;;;;;;109.28;14.48;;;;;;;;;;4882786;29;20646;-92
2023/12/16 10:16:23;;;;;;;48.75;10.38;;;;;;;;;;4903275;29;20452;-92
2023/12/16 10:18:54;;;;;;;96.70;13.20;;;;;;;;;;4901754;29;20048;-92
2023/12/16 10:21:25;;;;;;;89.47;11.70;;;;;;;;;;4903260;29;20051;-92
2023/12/16 10:23:52;;;;;;;61.92;10.85;;;;;;;;;;4887296;29;20410;-91
2023/12/16 10:26:19;;;;;;;121.97;14.57;;;;;;;;;;4906030;29;20035;-91
2023/12/16 10:28:49;;;;;;;90.38;11.40;;;;;;;;;;4904175;29;20052;-91
2023/12/16 10:31:18;;;;;;;124.68;14.52;;;;;;;;;;4901968;29;20053;-91
2023/12/16 10:33:45;;;;;;;83.90;12.38;;;;;;;;;;4886653;29;20045;-91
2023/12/16 10:36:12;;;;;;;74.60;11.70;;;;;;;;;;4894916;29;20459;-90
2023/12/16 10:38:39;;;;;;;78.70;12.43;;;;;;;;;;4893467;29;20041;-91
2023/12/16 10:41:05;;;;;;;99.57;12.32;;;;;;;;;;4898732;29;20057;-91
2023/12/16 10:43:32;;;;;;;88.32;10.13;;;;;;;;;;4908136;29;20047;-91
2023/12/16 10:46:09;;;;;;;60.17;9.38;;;;;;;;;;4901059;29;20059;-92
2023/12/16 10:48:36;;;;;;;78.88;10.23;;;;;;;;;;4902287;29;20036;-90
2023/12/16 10:51:04;;;;;;;77.63;11.25;;;;;;;;;;4903788;29;20410;-90
2023/12/16 10:53:33;;;;;;;99.15;11.20;;;;;;;;;;4888449;29;20463;-90
2023/12/16 10:56:02;;;;;;;91.70;10.60;;;;;;;;;;4901533;29;20071;-91
2023/12/16 10:58:35;;;;;;;43.78;8.52;;;;;;;;;;4879137;29;20045;-91
2023/12/16 11:01:05;;;;;;;84.45;10.73;;;;;;;;;;4906265;29;20758;-91
2023/12/16 11:03:54;;;;;;;90.18;12.23;;;;;;;;;;4895573;29;20048;-91
2023/12/16 11:06:26;;;;;;;66.20;9.73;;;;;;;;;;4905255;29;20032;-91
2023/12/16 11:08:53;;;;;;;55.35;9.63;;;;;;;;;;4881572;29;20072;-91
2023/12/16 11:11:20;;;;;;;95.97;11.85;;;;;;;;;;4900438;29;20490;-92
2023/12/16 11:13:48;;;;;;;78.28;10.80;;;;;;;;;;4883205;29;20492;-91
2023/12/16 11:16:19;;;;;;;62.75;9.10;;;;;;;;;;4890574;29;20049;-91
2023/12/16 11:18:48;;;;;;;122.97;13.27;;;;;;;;;;4881590;29;20057;-91
2023/12/16 11:21:17;;;;;;;63.60;10.15;;;;;;;;;;4906665;29;20064;-92
2023/12/16 11:23:44;;;;;;;72.10;11.48;;;;;;;;;;4901885;29;20041;-91
2023/12/16 11:26:11;;;;;;;129.70;14.68;;;;;;;;;;4886740;29;20056;-91
2023/12/16 11:28:38;;;;;;;63.67;10.18;;;;;;;;;;4887665;29;20043;-91
2023/12/16 11:31:05;;;;;;;69.30;10.25;;;;;;;;;;4881620;29;20144;-91
2023/12/16 11:33:47;;;;;;;141.45;14.65;;;;;;;;;;4885445;29;20048;-92
2023/12/16 11:36:14;;;;;;;85.38;12.32;;;;;;;;;;4897695;29;20048;-91
2023/12/16 11:38:43;;;;;;;100.18;12.93;;;;;;;;;;4908677;29;20040;-91
2023/12/16 11:41:10;;;;;;;48.00;11.30;;;;;;;;;;4880779;29;20131;-91
2023/12/16 11:43:47;;;;;;;92.40;13.23;;;;;;;;;;4873823;29;20072;-91
2023/12/16 11:46:33;;;;;;;124.25;15.88;;;;;;;;;;4898119;29;20587;-92
2023/12/16 11:49:01;;;;;;;57.75;11.48;;;;;;;;;;4902613;29;20051;-91
2023/12/16 11:51:29;;;;;;;132.77;16.33;;;;;;;;;;4911717;29;20041;-92
2023/12/16 11:53:57;;;;;;;68.07;14.00;;;;;;;;;;4898594;29;20124;-92
2023/12/16 11:56:23;;;;;;;61.28;13.77;;;;;;;;;;4902471;29;20044;-92
2023/12/16 11:58:50;;;;;;;117.43;17.50;;;;;;;;;;4900667;29;20155;-92
2023/12/16 12:01:17;;;;;;;95.47;14.98;;;;;;;;;;4903457;29;20056;-91
2023/12/16 12:03:44;;;;;;;63.50;13.45;;;;;;;;;;4896669;29;20067;-91
2023/12/16 12:06:11;;;;;;;126.43;18.52;;;;;;;;;;4885260;29;20488;-92
2023/12/16 12:08:39;;;;;;;110.10;17.27;;;;;;;;;;4892207;29;20424;-91
2023/12/16 12:11:06;;;;;;;91.43;16.42;;;;;;;;;;4901481;29;20047;-91
2023/12/16 12:13:34;;;;;;;118.10;18.20;;;;;;;;;;4898992;29;20112;-92
2023/12/16 12:16:01;;;;;;;101.57;16.83;;;;;;;;;;4904375;29;20044;-93
2023/12/16 12:18:28;;;;;;;58.75;16.10;;;;;;;;;;4900827;29;20051;-92
2023/12/16 12:20:55;;;;;;;99.97;18.92;;;;;;;;;;4903456;29;20036;-91
2023/12/16 12:23:21;;;;;;;110.80;17.67;;;;;;;;;;4885678;29;20146;-92
2023/12/16 12:25:55;;;;;;;71.40;14.88;;;;;;;;;;4901058;29;20485;-91
2023/12/16 12:28:22;;;;;;;97.82;16.48;;;;;;;;;;4886061;29;20583;-92
2023/12/16 12:30:48;;;;;;;126.10;19.13;;;;;;;;;;4896898;29;20056;-92
2023/12/16 12:33:15;;;;;;;76.25;17.27;;;;;;;;;;4903765;29;20044;-90
2023/12/16 12:35:42;;;;;;;96.63;16.20;;;;;;;;;;4896206;29;20048;-92
2023/12/16 12:38:08;;;;;;;88.88;16.52;;;;;;;;;;4888909;29;20054;-92
2023/12/16 12:40:35;;;;;;;74.25;15.63;;;;;;;;;;4899622;29;20047;-91
2023/12/16 12:43:01;;;;;;;86.05;16.50;;;;;;;;;;4901434;29;20040;-91
2023/12/16 12:45:29;;;;;;;99.75;17.17;;;;;;;;;;4901668;29;20487;-91
2023/12/16 12:48:13;;;;;;;63.55;15.65;;;;;;;;;;4889212;29;20099;-90
2023/12/16 12:50:41;;;;;;;77.60;14.88;;;;;;;;;;4884979;29;20052;-91
2023/12/16 12:53:18;;;;;;;86.32;15.73;;;;;;;;;;4901980;29;20089;-92
2023/12/16 12:55:51;;;;;;;65.65;15.35;;;;;;;;;;4896520;29;20072;-92
2023/12/16 12:58:19;;;;;;;78.05;16.08;;;;;;;;;;4884250;29;20067;-92
2023/12/16 13:00:56;;;;;;;110.47;17.88;;;;;;;;;;4891363;29;20123;-92
2023/12/16 13:03:24;;;;;;;65.15;14.25;;;;;;;;;;4903162;29;20049;-91
2023/12/16 13:05:52;;;;;;;53.80;14.07;;;;;;;;;;4903829;29;20702;-92
2023/12/16 13:08:19;;;;;;;96.72;16.05;;;;;;;;;;4878934;29;20129;-91
2023/12/16 13:10:46;;;;;;;77.50;15.63;;;;;;;;;;4905216;29;20449;-92
2023/12/16 13:13:13;;;;;;;77.13;15.10;;;;;;;;;;4899209;29;20048;-91
2023/12/16 13:15:40;;;;;;;110.63;18.42;;;;;;;;;;4904564;29;20075;-92
2023/12/16 13:18:22;;;;;;;48.92;15.45;;;;;;;;;;4899453;29;22394;-91
2023/12/16 13:20:49;;;;;;;141.32;19.42;;;;;;;;;;4902222;29;20637;-91
2023/12/16 13:23:16;;;;;;;77.00;14.60;;;;;;;;;;4902442;29;20044;-92
2023/12/16 13:25:42;;;;;;;70.13;13.90;;;;;;;;;;4897394;29;20052;-91
2023/12/16 13:28:09;;;;;;;127.72;19.35;;;;;;;;;;4905756;29;20396;-92
2023/12/16 13:30:36;;;;;;;95.13;17.13;;;;;;;;;;4867270;29;20152;-91
2023/12/16 13:33:03;;;;;;;67.13;14.60;;;;;;;;;;4909052;29;20423;-91
2023/12/16 13:35:31;;;;;;;104.75;17.23;;;;;;;;;;4884270;29;20056;-92
2023/12/16 13:37:58;;;;;;;76.78;15.48;;;;;;;;;;4903025;29;20043;-92
2023/12/16 13:40:24;;;;;;;71.25;14.65;;;;;;;;;;4903320;29;20044;-91
2023/12/16 13:42:51;;;;;;;104.30;16.42;;;;;;;;;;4893454;29;20073;-91
2023/12/16 13:45:18;;;;;;;109.47;17.73;;;;;;;;;;4904225;29;20033;-92
2023/12/16 13:47:44;;;;;;;74.40;14.65;;;;;;;;;;4904047;29;20054;-92
2023/12/16 13:50:12;;;;;;;106.15;18.35;;;;;;;;;;4889666;29;20059;-92
2023/12/16 13:52:38;;;;;;;96.85;17.20;;;;;;;;;;4882816;29;20048;-92
2023/12/16 13:55:05;;;;;;;92.20;16.70;;;;;;;;;;4903742;29;20048;-92
2023/12/16 13:57:32;;;;;;;98.15;16.10;;;;;;;;;;4883351;29;20066;-92
2023/12/16 13:59:59;;;;;;;74.30;16.60;;;;;;;;;;4890382;29;20051;-92
2023/12/16 14:02:26;;;;;;;74.18;16.00;;;;;;;;;;4900340;29;20056;-91
2023/12/16 14:04:52;;;;;;;88.53;16.80;;;;;;;;;;4908006;29;20044;-92
2023/12/16 14:07:19;;;;;;;109.30;17.08;;;;;;;;;;4903330;29;20056;-92
2023/12/16 14:09:46;;;;;;;105.60;17.27;;;;;;;;;;4904249;29;20044;-91
2023/12/16 14:12:12;;;;;;;99.15;17.27;;;;;;;;;;4904112;29;20127;-92
2023/12/16 14:14:39;;;;;;;109.47;17.45;;;;;;;;;;4901416;29;20126;-92